sensor_id;sensor_type;location;lat;lon;timestamp;temperature;humidity
3001;DHT22;1510;51.072;6.678;2024-02-21T00:01:01;9.10;99.90
3001;DHT22;1510;51.072;6.678;2024-02-21T00:03:30;9.10;99.90
3001;DHT22;1510;51.072;6.678;2024-02-21T00:05:57;9.10;99.90
3001;DHT22;1510;51.072;6.678;2024-02-21T00:08:24;9.10;99.90
3001;DHT22;1510;51.072;6.678;2024-02-21T00:10:51;9.10;99.90
3001;DHT22;1510;51.072;6.678;2024-02-21T00:13:17;9.10;99.90
3001;DHT22;1510;51.072;6.678;2024-02-21T00:15:44;9.10;99.90
3001;DHT22;1510;51.072;6.678;2024-02-21T00:18:11;9.10;99.90
3001;DHT22;1510;51.072;6.678;2024-02-21T00:20:39;9.10;99.90
3001;DHT22;1510;51.072;6.678;2024-02-21T00:23:06;9.10;99.90
3001;DHT22;1510;51.072;6.678;2024-02-21T00:25:33;9.10;99.90
3001;DHT22;1510;51.072;6.678;2024-02-21T00:28:00;9.00;99.90
3001;DHT22;1510;51.072;6.678;2024-02-21T00:30:26;9.00;99.90
3001;DHT22;1510;51.072;6.678;2024-02-21T00:32:53;9.00;99.90
3001;DHT22;1510;51.072;6.678;2024-02-21T00:35:20;9.00;99.90
3001;DHT22;1510;51.072;6.678;2024-02-21T00:37:48;9.00;99.90
3001;DHT22;1510;51.072;6.678;2024-02-21T00:40:15;9.00;99.90
3001;DHT22;1510;51.072;6.678;2024-02-21T00:42:45;9.00;99.90
3001;DHT22;1510;51.072;6.678;2024-02-21T00:45:12;8.90;99.90
3001;DHT22;1510;51.072;6.678;2024-02-21T00:47:39;8.90;99.90
3001;DHT22;1510;51.072;6.678;2024-02-21T00:50:07;8.90;99.90
3001;DHT22;1510;51.072;6.678;2024-02-21T00:52:35;9.00;99.90
3001;DHT22;1510;51.072;6.678;2024-02-21T00:55:03;8.90;99.90
3001;DHT22;1510;51.072;6.678;2024-02-21T00:57:30;9.00;99.90
3001;DHT22;1510;51.072;6.678;2024-02-21T00:59:57;9.00;99.90
3001;DHT22;1510;51.072;6.678;2024-02-21T01:02:24;9.00;99.90
3001;DHT22;1510;51.072;6.678;2024-02-21T01:04:51;8.90;99.90
3001;DHT22;1510;51.072;6.678;2024-02-21T01:07:18;9.10;99.90
3001;DHT22;1510;51.072;6.678;2024-02-21T01:09:45;8.90;99.90
3001;DHT22;1510;51.072;6.678;2024-02-21T01:12:13;8.90;99.90
3001;DHT22;1510;51.072;6.678;2024-02-21T01:14:40;9.00;99.90
3001;DHT22;1510;51.072;6.678;2024-02-21T01:17:07;8.90;99.90
3001;DHT22;1510;51.072;6.678;2024-02-21T01:19:33;9.00;99.90
3001;DHT22;1510;51.072;6.678;2024-02-21T01:22:00;9.00;99.90
3001;DHT22;1510;51.072;6.678;2024-02-21T01:24:27;8.90;99.90
3001;DHT22;1510;51.072;6.678;2024-02-21T01:26:54;9.00;99.90
3001;DHT22;1510;51.072;6.678;2024-02-21T01:29:22;9.00;99.90
3001;DHT22;1510;51.072;6.678;2024-02-21T01:31:49;9.00;99.90
3001;DHT22;1510;51.072;6.678;2024-02-21T01:34:15;9.00;99.90
3001;DHT22;1510;51.072;6.678;2024-02-21T01:36:42;8.90;99.90
3001;DHT22;1510;51.072;6.678;2024-02-21T01:39:09;8.90;99.90
3001;DHT22;1510;51.072;6.678;2024-02-21T01:41:36;8.90;99.90
3001;DHT22;1510;51.072;6.678;2024-02-21T01:44:03;9.00;99.90
3001;DHT22;1510;51.072;6.678;2024-02-21T01:46:31;8.90;99.90
3001;DHT22;1510;51.072;6.678;2024-02-21T01:48:58;8.90;99.90
3001;DHT22;1510;51.072;6.678;2024-02-21T01:51:26;8.90;99.90
3001;DHT22;1510;51.072;6.678;2024-02-21T01:53:55;8.90;99.90
3001;DHT22;1510;51.072;6.678;2024-02-21T01:56:23;8.90;99.90
3001;DHT22;1510;51.072;6.678;2024-02-21T01:58:51;8.90;99.90
3001;DHT22;1510;51.072;6.678;2024-02-21T02:01:18;8.90;99.90
3001;DHT22;1510;51.072;6.678;2024-02-21T02:03:47;8.90;99.90
3001;DHT22;1510;51.072;6.678;2024-02-21T02:06:14;8.90;99.90
3001;DHT22;1510;51.072;6.678;2024-02-21T02:08:42;9.00;99.90
3001;DHT22;1510;51.072;6.678;2024-02-21T02:11:09;8.90;99.90
3001;DHT22;1510;51.072;6.678;2024-02-21T02:13:36;9.00;99.90
3001;DHT22;1510;51.072;6.678;2024-02-21T02:16:03;9.10;99.90
3001;DHT22;1510;51.072;6.678;2024-02-21T02:18:30;9.00;99.90
3001;DHT22;1510;51.072;6.678;2024-02-21T02:20:58;9.00;99.90
3001;DHT22;1510;51.072;6.678;2024-02-21T02:23:27;8.90;99.90
3001;DHT22;1510;51.072;6.678;2024-02-21T02:25:54;8.90;99.90
3001;DHT22;1510;51.072;6.678;2024-02-21T02:28:22;8.90;99.90
3001;DHT22;1510;51.072;6.678;2024-02-21T02:30:49;8.90;99.90
3001;DHT22;1510;51.072;6.678;2024-02-21T02:33:16;8.90;99.90
3001;DHT22;1510;51.072;6.678;2024-02-21T02:35:43;8.90;99.90
3001;DHT22;1510;51.072;6.678;2024-02-21T02:38:10;8.90;99.90
3001;DHT22;1510;51.072;6.678;2024-02-21T02:40:40;8.90;99.90
3001;DHT22;1510;51.072;6.678;2024-02-21T02:43:07;8.80;99.90
3001;DHT22;1510;51.072;6.678;2024-02-21T02:45:34;8.80;99.90
3001;DHT22;1510;51.072;6.678;2024-02-21T02:48:01;8.80;99.90
3001;DHT22;1510;51.072;6.678;2024-02-21T02:50:28;8.70;99.90
3001;DHT22;1510;51.072;6.678;2024-02-21T02:52:55;8.70;99.90
3001;DHT22;1510;51.072;6.678;2024-02-21T02:55:22;8.70;99.90
3001;DHT22;1510;51.072;6.678;2024-02-21T02:57:50;8.70;99.90
3001;DHT22;1510;51.072;6.678;2024-02-21T03:00:17;8.80;99.90
3001;DHT22;1510;51.072;6.678;2024-02-21T03:02:46;8.80;99.90
3001;DHT22;1510;51.072;6.678;2024-02-21T03:05:16;8.80;99.90
3001;DHT22;1510;51.072;6.678;2024-02-21T03:07:44;8.80;99.90
3001;DHT22;1510;51.072;6.678;2024-02-21T03:10:11;8.80;99.90
3001;DHT22;1510;51.072;6.678;2024-02-21T03:12:39;8.80;99.90
3001;DHT22;1510;51.072;6.678;2024-02-21T03:15:07;8.80;99.90
3001;DHT22;1510;51.072;6.678;2024-02-21T03:17:35;8.80;99.90
3001;DHT22;1510;51.072;6.678;2024-02-21T03:20:01;8.80;99.90
3001;DHT22;1510;51.072;6.678;2024-02-21T03:22:31;8.80;99.90
3001;DHT22;1510;51.072;6.678;2024-02-21T03:24:57;8.80;99.90
3001;DHT22;1510;51.072;6.678;2024-02-21T03:27:24;8.80;99.90
3001;DHT22;1510;51.072;6.678;2024-02-21T03:29:51;8.80;99.90
3001;DHT22;1510;51.072;6.678;2024-02-21T03:32:19;8.80;99.90
3001;DHT22;1510;51.072;6.678;2024-02-21T03:34:46;8.80;99.90
3001;DHT22;1510;51.072;6.678;2024-02-21T03:37:13;8.90;99.90
3001;DHT22;1510;51.072;6.678;2024-02-21T03:39:40;8.90;99.90
3001;DHT22;1510;51.072;6.678;2024-02-21T03:42:07;8.80;99.90
3001;DHT22;1510;51.072;6.678;2024-02-21T03:44:34;8.90;99.90
3001;DHT22;1510;51.072;6.678;2024-02-21T03:47:01;8.80;99.90
3001;DHT22;1510;51.072;6.678;2024-02-21T03:49:29;8.80;99.90
3001;DHT22;1510;51.072;6.678;2024-02-21T03:51:56;8.80;99.90
3001;DHT22;1510;51.072;6.678;2024-02-21T03:54:23;8.80;99.90
3001;DHT22;1510;51.072;6.678;2024-02-21T03:56:49;8.80;99.90
3001;DHT22;1510;51.072;6.678;2024-02-21T03:59:17;8.80;99.90
3001;DHT22;1510;51.072;6.678;2024-02-21T04:01:44;8.80;99.90
3001;DHT22;1510;51.072;6.678;2024-02-21T04:04:11;8.80;99.90
3001;DHT22;1510;51.072;6.678;2024-02-21T04:06:47;8.80;99.90
3001;DHT22;1510;51.072;6.678;2024-02-21T04:09:14;8.80;99.90
3001;DHT22;1510;51.072;6.678;2024-02-21T04:11:41;8.80;99.90
3001;DHT22;1510;51.072;6.678;2024-02-21T04:14:08;8.80;99.90
3001;DHT22;1510;51.072;6.678;2024-02-21T04:16:36;8.80;99.90
3001;DHT22;1510;51.072;6.678;2024-02-21T04:19:03;8.80;99.90
3001;DHT22;1510;51.072;6.678;2024-02-21T04:21:30;8.80;99.90
3001;DHT22;1510;51.072;6.678;2024-02-21T04:23:58;8.80;99.90
3001;DHT22;1510;51.072;6.678;2024-02-21T04:26:25;8.80;99.90
3001;DHT22;1510;51.072;6.678;2024-02-21T04:28:52;8.80;99.90
3001;DHT22;1510;51.072;6.678;2024-02-21T04:31:19;8.80;99.90
3001;DHT22;1510;51.072;6.678;2024-02-21T04:33:45;8.80;99.90
3001;DHT22;1510;51.072;6.678;2024-02-21T04:36:12;8.80;99.90
3001;DHT22;1510;51.072;6.678;2024-02-21T04:38:39;8.90;99.90
3001;DHT22;1510;51.072;6.678;2024-02-21T04:41:08;8.90;99.90
3001;DHT22;1510;51.072;6.678;2024-02-21T04:43:34;8.90;99.90
3001;DHT22;1510;51.072;6.678;2024-02-21T04:46:01;8.90;99.90
3001;DHT22;1510;51.072;6.678;2024-02-21T04:48:28;8.90;99.90
3001;DHT22;1510;51.072;6.678;2024-02-21T04:50:55;8.90;99.90
3001;DHT22;1510;51.072;6.678;2024-02-21T04:53:22;8.90;99.90
3001;DHT22;1510;51.072;6.678;2024-02-21T04:55:49;8.80;99.90
3001;DHT22;1510;51.072;6.678;2024-02-21T04:58:17;8.80;99.90
3001;DHT22;1510;51.072;6.678;2024-02-21T05:00:43;8.80;99.90
3001;DHT22;1510;51.072;6.678;2024-02-21T05:03:10;8.80;99.90
3001;DHT22;1510;51.072;6.678;2024-02-21T05:05:37;8.80;99.90
3001;DHT22;1510;51.072;6.678;2024-02-21T05:08:04;8.80;99.90
3001;DHT22;1510;51.072;6.678;2024-02-21T05:10:31;8.80;99.90
3001;DHT22;1510;51.072;6.678;2024-02-21T05:12:58;8.80;99.90
3001;DHT22;1510;51.072;6.678;2024-02-21T05:15:26;8.80;99.90
3001;DHT22;1510;51.072;6.678;2024-02-21T05:17:53;8.80;99.90
3001;DHT22;1510;51.072;6.678;2024-02-21T05:20:20;8.80;99.90
3001;DHT22;1510;51.072;6.678;2024-02-21T05:22:46;8.80;99.90
3001;DHT22;1510;51.072;6.678;2024-02-21T05:25:13;8.70;99.90
3001;DHT22;1510;51.072;6.678;2024-02-21T05:27:40;8.70;99.90
3001;DHT22;1510;51.072;6.678;2024-02-21T05:30:07;8.70;99.90
3001;DHT22;1510;51.072;6.678;2024-02-21T05:32:36;8.70;99.90
3001;DHT22;1510;51.072;6.678;2024-02-21T05:35:04;8.70;99.90
3001;DHT22;1510;51.072;6.678;2024-02-21T05:37:30;8.70;99.90
3001;DHT22;1510;51.072;6.678;2024-02-21T05:39:57;8.70;99.90
3001;DHT22;1510;51.072;6.678;2024-02-21T05:42:24;8.70;99.90
3001;DHT22;1510;51.072;6.678;2024-02-21T05:44:51;8.70;99.90
3001;DHT22;1510;51.072;6.678;2024-02-21T05:47:18;8.70;99.90
3001;DHT22;1510;51.072;6.678;2024-02-21T05:49:47;8.70;99.90
3001;DHT22;1510;51.072;6.678;2024-02-21T05:52:14;8.80;99.90
3001;DHT22;1510;51.072;6.678;2024-02-21T05:54:41;8.70;99.90
3001;DHT22;1510;51.072;6.678;2024-02-21T05:57:08;8.70;99.90
3001;DHT22;1510;51.072;6.678;2024-02-21T05:59:34;8.70;99.90
3001;DHT22;1510;51.072;6.678;2024-02-21T06:02:05;8.80;99.90
3001;DHT22;1510;51.072;6.678;2024-02-21T06:04:32;8.80;99.90
3001;DHT22;1510;51.072;6.678;2024-02-21T06:07:00;8.70;99.90
3001;DHT22;1510;51.072;6.678;2024-02-21T06:09:27;8.80;99.90
3001;DHT22;1510;51.072;6.678;2024-02-21T06:11:54;8.80;99.90
3001;DHT22;1510;51.072;6.678;2024-02-21T06:14:21;8.80;99.90
3001;DHT22;1510;51.072;6.678;2024-02-21T06:16:47;8.80;99.90
3001;DHT22;1510;51.072;6.678;2024-02-21T06:19:14;8.80;99.90
3001;DHT22;1510;51.072;6.678;2024-02-21T06:21:41;8.80;99.90
3001;DHT22;1510;51.072;6.678;2024-02-21T06:24:09;8.80;99.90
3001;DHT22;1510;51.072;6.678;2024-02-21T06:26:37;8.80;99.90
3001;DHT22;1510;51.072;6.678;2024-02-21T06:29:05;8.80;99.90
3001;DHT22;1510;51.072;6.678;2024-02-21T06:31:33;8.80;99.90
3001;DHT22;1510;51.072;6.678;2024-02-21T06:34:00;8.80;99.90
3001;DHT22;1510;51.072;6.678;2024-02-21T06:36:26;8.80;99.90
3001;DHT22;1510;51.072;6.678;2024-02-21T06:38:53;8.80;99.90
3001;DHT22;1510;51.072;6.678;2024-02-21T06:41:21;8.80;99.90
3001;DHT22;1510;51.072;6.678;2024-02-21T06:43:48;8.80;99.90
3001;DHT22;1510;51.072;6.678;2024-02-21T06:46:23;8.80;99.90
3001;DHT22;1510;51.072;6.678;2024-02-21T06:48:50;8.80;99.90
3001;DHT22;1510;51.072;6.678;2024-02-21T06:51:17;8.80;99.90
3001;DHT22;1510;51.072;6.678;2024-02-21T06:53:44;8.80;99.90
3001;DHT22;1510;51.072;6.678;2024-02-21T06:56:11;8.80;99.90
3001;DHT22;1510;51.072;6.678;2024-02-21T06:58:39;8.80;99.90
3001;DHT22;1510;51.072;6.678;2024-02-21T07:01:06;8.80;99.90
3001;DHT22;1510;51.072;6.678;2024-02-21T07:03:33;8.80;99.90
3001;DHT22;1510;51.072;6.678;2024-02-21T07:06:00;8.70;99.90
3001;DHT22;1510;51.072;6.678;2024-02-21T07:08:27;8.70;99.90
3001;DHT22;1510;51.072;6.678;2024-02-21T07:10:54;8.70;99.90
3001;DHT22;1510;51.072;6.678;2024-02-21T07:13:21;8.60;99.90
3001;DHT22;1510;51.072;6.678;2024-02-21T07:15:50;8.60;99.90
3001;DHT22;1510;51.072;6.678;2024-02-21T07:18:16;8.70;99.90
3001;DHT22;1510;51.072;6.678;2024-02-21T07:20:43;8.60;99.90
3001;DHT22;1510;51.072;6.678;2024-02-21T07:23:10;8.70;99.90
3001;DHT22;1510;51.072;6.678;2024-02-21T07:25:37;8.70;99.90
3001;DHT22;1510;51.072;6.678;2024-02-21T07:28:05;8.70;99.90
3001;DHT22;1510;51.072;6.678;2024-02-21T07:30:33;8.70;99.90
3001;DHT22;1510;51.072;6.678;2024-02-21T07:33:02;8.80;99.90
3001;DHT22;1510;51.072;6.678;2024-02-21T07:35:28;8.80;99.90
3001;DHT22;1510;51.072;6.678;2024-02-21T07:37:55;8.80;99.90
3001;DHT22;1510;51.072;6.678;2024-02-21T07:40:23;8.80;99.90
3001;DHT22;1510;51.072;6.678;2024-02-21T07:42:49;8.80;99.90
3001;DHT22;1510;51.072;6.678;2024-02-21T07:45:16;8.80;99.90
3001;DHT22;1510;51.072;6.678;2024-02-21T07:47:43;8.80;99.90
3001;DHT22;1510;51.072;6.678;2024-02-21T07:50:12;8.80;99.90
3001;DHT22;1510;51.072;6.678;2024-02-21T07:52:38;8.80;99.90
3001;DHT22;1510;51.072;6.678;2024-02-21T07:55:06;8.90;99.90
3001;DHT22;1510;51.072;6.678;2024-02-21T07:57:32;8.80;99.90
3001;DHT22;1510;51.072;6.678;2024-02-21T07:59:59;8.80;99.90
3001;DHT22;1510;51.072;6.678;2024-02-21T08:02:26;8.80;99.90
3001;DHT22;1510;51.072;6.678;2024-02-21T08:04:55;8.70;99.90
3001;DHT22;1510;51.072;6.678;2024-02-21T08:07:23;8.80;99.90
3001;DHT22;1510;51.072;6.678;2024-02-21T08:09:50;8.80;99.90
3001;DHT22;1510;51.072;6.678;2024-02-21T08:12:17;8.80;99.90
3001;DHT22;1510;51.072;6.678;2024-02-21T08:14:43;8.90;99.90
3001;DHT22;1510;51.072;6.678;2024-02-21T08:17:10;8.90;99.90
3001;DHT22;1510;51.072;6.678;2024-02-21T08:19:37;8.80;99.90
3001;DHT22;1510;51.072;6.678;2024-02-21T08:22:04;8.90;99.90
3001;DHT22;1510;51.072;6.678;2024-02-21T08:24:33;8.90;99.90
3001;DHT22;1510;51.072;6.678;2024-02-21T08:26:59;8.90;99.90
3001;DHT22;1510;51.072;6.678;2024-02-21T08:29:26;8.90;99.90
3001;DHT22;1510;51.072;6.678;2024-02-21T08:31:53;9.00;99.90
3001;DHT22;1510;51.072;6.678;2024-02-21T08:34:20;9.00;99.90
3001;DHT22;1510;51.072;6.678;2024-02-21T08:36:47;9.00;99.90
3001;DHT22;1510;51.072;6.678;2024-02-21T08:39:14;9.00;99.90
3001;DHT22;1510;51.072;6.678;2024-02-21T08:41:43;9.00;99.90
3001;DHT22;1510;51.072;6.678;2024-02-21T08:44:10;9.00;99.90
3001;DHT22;1510;51.072;6.678;2024-02-21T08:46:36;9.00;99.90
3001;DHT22;1510;51.072;6.678;2024-02-21T08:49:05;9.00;99.90
3001;DHT22;1510;51.072;6.678;2024-02-21T08:51:32;9.00;99.90
3001;DHT22;1510;51.072;6.678;2024-02-21T08:53:59;9.10;99.90
3001;DHT22;1510;51.072;6.678;2024-02-21T08:56:26;9.10;99.90
3001;DHT22;1510;51.072;6.678;2024-02-21T08:58:54;9.20;99.90
3001;DHT22;1510;51.072;6.678;2024-02-21T09:01:22;9.40;99.90
3001;DHT22;1510;51.072;6.678;2024-02-21T09:03:49;9.40;99.90
3001;DHT22;1510;51.072;6.678;2024-02-21T09:06:19;9.40;99.90
3001;DHT22;1510;51.072;6.678;2024-02-21T09:08:46;9.50;99.90
3001;DHT22;1510;51.072;6.678;2024-02-21T09:11:12;9.60;99.90
3001;DHT22;1510;51.072;6.678;2024-02-21T09:13:39;9.70;99.90
3001;DHT22;1510;51.072;6.678;2024-02-21T09:16:08;9.90;99.90
3001;DHT22;1510;51.072;6.678;2024-02-21T09:18:34;10.00;99.90
3001;DHT22;1510;51.072;6.678;2024-02-21T09:21:01;10.10;99.90
3001;DHT22;1510;51.072;6.678;2024-02-21T09:23:28;10.10;99.90
3001;DHT22;1510;51.072;6.678;2024-02-21T09:25:57;10.20;98.90
3001;DHT22;1510;51.072;6.678;2024-02-21T09:28:26;10.30;97.80
3001;DHT22;1510;51.072;6.678;2024-02-21T09:30:52;10.20;97.70
3001;DHT22;1510;51.072;6.678;2024-02-21T09:33:21;10.20;97.70
3001;DHT22;1510;51.072;6.678;2024-02-21T09:35:47;10.10;97.60
3001;DHT22;1510;51.072;6.678;2024-02-21T09:38:15;10.10;97.60
3001;DHT22;1510;51.072;6.678;2024-02-21T09:40:42;10.10;97.60
3001;DHT22;1510;51.072;6.678;2024-02-21T09:43:08;10.10;97.60
3001;DHT22;1510;51.072;6.678;2024-02-21T09:45:35;10.10;97.60
3001;DHT22;1510;51.072;6.678;2024-02-21T09:48:13;10.20;97.70
3001;DHT22;1510;51.072;6.678;2024-02-21T09:50:44;10.20;94.50
3001;DHT22;1510;51.072;6.678;2024-02-21T09:53:12;10.20;97.70
3001;DHT22;1510;51.072;6.678;2024-02-21T09:55:40;10.20;94.80
3001;DHT22;1510;51.072;6.678;2024-02-21T09:58:07;10.20;94.60
3001;DHT22;1510;51.072;6.678;2024-02-21T10:00:35;10.30;95.70
3001;DHT22;1510;51.072;6.678;2024-02-21T10:03:02;10.30;97.40
3001;DHT22;1510;51.072;6.678;2024-02-21T10:05:33;10.30;94.40
3001;DHT22;1510;51.072;6.678;2024-02-21T10:08:02;10.30;94.40
3001;DHT22;1510;51.072;6.678;2024-02-21T10:10:29;10.30;94.40
3001;DHT22;1510;51.072;6.678;2024-02-21T10:12:56;10.30;94.50
3001;DHT22;1510;51.072;6.678;2024-02-21T10:15:24;10.40;94.50
3001;DHT22;1510;51.072;6.678;2024-02-21T10:17:58;10.20;94.40
3001;DHT22;1510;51.072;6.678;2024-02-21T10:20:26;10.20;94.40
3001;DHT22;1510;51.072;6.678;2024-02-21T10:23:02;10.20;94.40
3001;DHT22;1510;51.072;6.678;2024-02-21T10:25:33;10.30;93.10
3001;DHT22;1510;51.072;6.678;2024-02-21T10:28:02;10.40;94.50
3001;DHT22;1510;51.072;6.678;2024-02-21T10:30:29;10.50;94.50
3001;DHT22;1510;51.072;6.678;2024-02-21T10:32:56;10.60;94.50
3001;DHT22;1510;51.072;6.678;2024-02-21T10:35:26;10.70;93.60
3001;DHT22;1510;51.072;6.678;2024-02-21T10:37:54;10.90;91.30
3001;DHT22;1510;51.072;6.678;2024-02-21T10:40:23;10.90;91.40
3001;DHT22;1510;51.072;6.678;2024-02-21T10:42:56;10.90;91.30
3001;DHT22;1510;51.072;6.678;2024-02-21T10:45:28;10.80;91.30
3001;DHT22;1510;51.072;6.678;2024-02-21T10:47:56;11.00;91.40
3001;DHT22;1510;51.072;6.678;2024-02-21T10:50:32;11.20;91.50
3001;DHT22;1510;51.072;6.678;2024-02-21T10:53:09;11.20;91.50
3001;DHT22;1510;51.072;6.678;2024-02-21T10:55:51;11.40;91.50
3001;DHT22;1510;51.072;6.678;2024-02-21T10:58:21;11.70;91.70
3001;DHT22;1510;51.072;6.678;2024-02-21T11:00:49;11.80;91.70
3001;DHT22;1510;51.072;6.678;2024-02-21T11:03:16;11.90;91.70
3001;DHT22;1510;51.072;6.678;2024-02-21T11:05:44;11.90;91.70
3001;DHT22;1510;51.072;6.678;2024-02-21T11:08:11;12.00;91.80
3001;DHT22;1510;51.072;6.678;2024-02-21T11:10:39;12.20;91.90
3001;DHT22;1510;51.072;6.678;2024-02-21T11:13:09;12.30;91.90
3001;DHT22;1510;51.072;6.678;2024-02-21T11:15:35;12.30;91.80
3001;DHT22;1510;51.072;6.678;2024-02-21T11:18:03;12.50;91.10
3001;DHT22;1510;51.072;6.678;2024-02-21T11:20:33;12.20;91.00
3001;DHT22;1510;51.072;6.678;2024-02-21T11:23:00;12.40;90.00
3001;DHT22;1510;51.072;6.678;2024-02-21T11:25:28;12.40;90.60
3001;DHT22;1510;51.072;6.678;2024-02-21T11:28:00;12.20;91.80
3001;DHT22;1510;51.072;6.678;2024-02-21T11:30:30;12.30;91.90
3001;DHT22;1510;51.072;6.678;2024-02-21T11:33:03;12.10;86.60
3001;DHT22;1510;51.072;6.678;2024-02-21T11:35:34;12.00;91.70
3001;DHT22;1510;51.072;6.678;2024-02-21T11:38:10;12.10;91.80
3001;DHT22;1510;51.072;6.678;2024-02-21T11:40:40;12.20;91.80
3001;DHT22;1510;51.072;6.678;2024-02-21T11:43:07;12.00;91.80
3001;DHT22;1510;51.072;6.678;2024-02-21T11:45:35;12.10;91.20
3001;DHT22;1510;51.072;6.678;2024-02-21T11:48:02;12.00;86.50
3001;DHT22;1510;51.072;6.678;2024-02-21T11:50:31;12.00;91.70
3001;DHT22;1510;51.072;6.678;2024-02-21T11:52:58;12.20;91.80
3001;DHT22;1510;51.072;6.678;2024-02-21T11:55:24;12.40;86.80
3001;DHT22;1510;51.072;6.678;2024-02-21T11:57:51;12.40;86.80
3001;DHT22;1510;51.072;6.678;2024-02-21T12:00:19;12.40;86.80
3001;DHT22;1510;51.072;6.678;2024-02-21T12:02:48;12.20;86.60
3001;DHT22;1510;51.072;6.678;2024-02-21T12:05:16;12.30;91.90
3001;DHT22;1510;51.072;6.678;2024-02-21T12:07:45;12.10;86.60
3001;DHT22;1510;51.072;6.678;2024-02-21T12:10:13;12.20;86.60
3001;DHT22;1510;51.072;6.678;2024-02-21T12:12:40;12.00;86.40
3001;DHT22;1510;51.072;6.678;2024-02-21T12:15:07;12.00;81.40
3001;DHT22;1510;51.072;6.678;2024-02-21T12:17:34;12.00;86.50
3001;DHT22;1510;51.072;6.678;2024-02-21T12:20:03;12.10;86.60
3001;DHT22;1510;51.072;6.678;2024-02-21T12:22:35;12.00;91.80
3001;DHT22;1510;51.072;6.678;2024-02-21T12:25:03;12.00;90.80
3001;DHT22;1510;51.072;6.678;2024-02-21T12:27:33;12.20;86.70
3001;DHT22;1510;51.072;6.678;2024-02-21T12:30:00;12.30;87.40
3001;DHT22;1510;51.072;6.678;2024-02-21T12:32:28;12.30;83.10
3001;DHT22;1510;51.072;6.678;2024-02-21T12:34:55;12.20;79.00
3001;DHT22;1510;51.072;6.678;2024-02-21T12:37:25;12.30;86.40
3001;DHT22;1510;51.072;6.678;2024-02-21T12:39:52;12.40;83.20
3001;DHT22;1510;51.072;6.678;2024-02-21T12:42:18;12.70;83.30
3001;DHT22;1510;51.072;6.678;2024-02-21T12:44:45;13.00;83.60
3001;DHT22;1510;51.072;6.678;2024-02-21T12:47:12;13.00;87.30
3001;DHT22;1510;51.072;6.678;2024-02-21T12:49:39;13.00;79.70
3001;DHT22;1510;51.072;6.678;2024-02-21T12:52:06;13.20;79.90
3001;DHT22;1510;51.072;6.678;2024-02-21T12:54:34;13.10;79.80
3001;DHT22;1510;51.072;6.678;2024-02-21T12:57:01;13.10;79.80
3001;DHT22;1510;51.072;6.678;2024-02-21T12:59:28;13.20;79.90
3001;DHT22;1510;51.072;6.678;2024-02-21T13:01:55;13.30;80.00
3001;DHT22;1510;51.072;6.678;2024-02-21T13:04:22;13.50;80.10
3001;DHT22;1510;51.072;6.678;2024-02-21T13:06:49;13.70;72.70
3001;DHT22;1510;51.072;6.678;2024-02-21T13:09:16;13.90;72.60
3001;DHT22;1510;51.072;6.678;2024-02-21T13:11:45;14.00;68.80
3001;DHT22;1510;51.072;6.678;2024-02-21T13:14:12;14.30;65.00
3001;DHT22;1510;51.072;6.678;2024-02-21T13:16:38;14.00;64.60
3001;DHT22;1510;51.072;6.678;2024-02-21T13:19:06;14.00;64.70
3001;DHT22;1510;51.072;6.678;2024-02-21T13:21:33;13.90;68.60
3001;DHT22;1510;51.072;6.678;2024-02-21T13:24:00;14.00;71.90
3001;DHT22;1510;51.072;6.678;2024-02-21T13:26:27;13.60;64.30
3001;DHT22;1510;51.072;6.678;2024-02-21T13:28:55;13.60;64.50
3001;DHT22;1510;51.072;6.678;2024-02-21T13:31:22;13.70;75.80
3001;DHT22;1510;51.072;6.678;2024-02-21T13:33:50;13.60;72.50
3001;DHT22;1510;51.072;6.678;2024-02-21T13:36:17;13.40;64.10
3001;DHT22;1510;51.072;6.678;2024-02-21T13:38:44;13.20;72.00
3001;DHT22;1510;51.072;6.678;2024-02-21T13:41:12;13.00;72.20
3001;DHT22;1510;51.072;6.678;2024-02-21T13:43:39;12.80;79.40
3001;DHT22;1510;51.072;6.678;2024-02-21T13:46:07;12.70;79.40
3001;DHT22;1510;51.072;6.678;2024-02-21T13:48:35;12.70;79.30
3001;DHT22;1510;51.072;6.678;2024-02-21T13:51:02;12.60;78.40
3001;DHT22;1510;51.072;6.678;2024-02-21T13:53:29;12.70;79.40
3001;DHT22;1510;51.072;6.678;2024-02-21T13:55:56;12.60;79.20
3001;DHT22;1510;51.072;6.678;2024-02-21T13:58:22;12.60;80.10
3001;DHT22;1510;51.072;6.678;2024-02-21T14:00:51;12.60;79.20
3001;DHT22;1510;51.072;6.678;2024-02-21T14:03:19;12.60;79.30
3001;DHT22;1510;51.072;6.678;2024-02-21T14:05:46;12.60;79.30
3001;DHT22;1510;51.072;6.678;2024-02-21T14:08:13;12.50;79.20
3001;DHT22;1510;51.072;6.678;2024-02-21T14:10:41;12.50;79.30
3001;DHT22;1510;51.072;6.678;2024-02-21T14:13:08;12.50;79.30
3001;DHT22;1510;51.072;6.678;2024-02-21T14:15:34;12.60;79.40
3001;DHT22;1510;51.072;6.678;2024-02-21T14:18:02;12.70;79.50
3001;DHT22;1510;51.072;6.678;2024-02-21T14:20:32;12.70;79.40
3001;DHT22;1510;51.072;6.678;2024-02-21T14:22:59;12.80;79.50
3001;DHT22;1510;51.072;6.678;2024-02-21T14:25:26;12.90;79.60
3001;DHT22;1510;51.072;6.678;2024-02-21T14:27:53;12.90;79.60
3001;DHT22;1510;51.072;6.678;2024-02-21T14:30:19;12.90;79.40
3001;DHT22;1510;51.072;6.678;2024-02-21T14:32:46;12.80;79.50
3001;DHT22;1510;51.072;6.678;2024-02-21T14:35:13;12.70;71.60
3001;DHT22;1510;51.072;6.678;2024-02-21T14:37:42;12.60;78.50
3001;DHT22;1510;51.072;6.678;2024-02-21T14:40:10;12.70;71.50
3001;DHT22;1510;51.072;6.678;2024-02-21T14:42:36;12.60;79.30
3001;DHT22;1510;51.072;6.678;2024-02-21T14:45:04;12.60;79.30
3001;DHT22;1510;51.072;6.678;2024-02-21T14:47:32;12.60;79.30
3001;DHT22;1510;51.072;6.678;2024-02-21T14:49:59;12.60;79.40
3001;DHT22;1510;51.072;6.678;2024-02-21T14:52:26;12.60;82.60
3001;DHT22;1510;51.072;6.678;2024-02-21T14:54:54;12.50;79.20
3001;DHT22;1510;51.072;6.678;2024-02-21T14:57:21;12.40;79.20
3001;DHT22;1510;51.072;6.678;2024-02-21T14:59:49;12.40;79.20
3001;DHT22;1510;51.072;6.678;2024-02-21T15:02:21;12.30;79.00
3001;DHT22;1510;51.072;6.678;2024-02-21T15:04:48;12.40;86.80
3001;DHT22;1510;51.072;6.678;2024-02-21T15:07:16;12.20;79.00
3001;DHT22;1510;51.072;6.678;2024-02-21T15:09:44;12.30;86.70
3001;DHT22;1510;51.072;6.678;2024-02-21T15:12:12;12.20;83.80
3001;DHT22;1510;51.072;6.678;2024-02-21T15:14:39;12.10;80.70
3001;DHT22;1510;51.072;6.678;2024-02-21T15:17:06;12.10;86.60
3001;DHT22;1510;51.072;6.678;2024-02-21T15:19:33;12.00;78.90
3001;DHT22;1510;51.072;6.678;2024-02-21T15:22:00;12.00;78.80
3001;DHT22;1510;51.072;6.678;2024-02-21T15:24:26;11.90;78.60
3001;DHT22;1510;51.072;6.678;2024-02-21T15:26:53;11.90;71.60
3001;DHT22;1510;51.072;6.678;2024-02-21T15:29:21;11.80;70.70
3001;DHT22;1510;51.072;6.678;2024-02-21T15:31:49;11.80;70.70
3001;DHT22;1510;51.072;6.678;2024-02-21T15:34:16;11.70;70.60
3001;DHT22;1510;51.072;6.678;2024-02-21T15:36:43;11.70;63.10
3001;DHT22;1510;51.072;6.678;2024-02-21T15:39:10;11.70;62.60
3001;DHT22;1510;51.072;6.678;2024-02-21T15:41:37;11.60;62.50
3001;DHT22;1510;51.072;6.678;2024-02-21T15:44:04;11.50;62.40
3001;DHT22;1510;51.072;6.678;2024-02-21T15:46:32;11.50;62.40
3001;DHT22;1510;51.072;6.678;2024-02-21T15:49:02;11.50;62.30
3001;DHT22;1510;51.072;6.678;2024-02-21T15:51:29;11.50;62.30
3001;DHT22;1510;51.072;6.678;2024-02-21T15:53:56;11.40;62.30
3001;DHT22;1510;51.072;6.678;2024-02-21T15:56:23;11.40;69.90
3001;DHT22;1510;51.072;6.678;2024-02-21T15:58:50;11.10;65.30
3001;DHT22;1510;51.072;6.678;2024-02-21T16:01:17;11.10;62.00
3001;DHT22;1510;51.072;6.678;2024-02-21T16:03:45;11.00;62.40
3001;DHT22;1510;51.072;6.678;2024-02-21T16:06:12;11.00;61.90
3001;DHT22;1510;51.072;6.678;2024-02-21T16:08:39;11.10;62.10
3001;DHT22;1510;51.072;6.678;2024-02-21T16:11:08;11.10;62.00
3001;DHT22;1510;51.072;6.678;2024-02-21T16:13:39;11.10;62.00